Weather at Abbotsford International Airport

Public forecast

Using degrees Celsius for public forecast. Weather courtesy of forecast.io.

Current aviation weather report (METAR) for Abbotsford International Airport

2024/05/28 22:00 (retrieved 18 minutes ago)

CYXX 282200Z 17008KT 6SM -RA BR SCT008 BKN015 OVC025 12/11 A3009 RMK SF4SC2SC2 SLP194

Aviation forecast (TAF) for Abbotsford International Airport

2024/05/28 20:09 Ammendment (retrieved 2 hours ago)

TAF AMD CYXX 282006Z 2820/2918 20010KT 5SM -RA BR SCT006 BKN030 TEMPO 2820/2823 2SM -RA BR BKN006 OVC030 FM282300 20008KT P6SM SCT012 OVC030 TEMPO 2823/2901 4SM -RA BR SCT006 BKN012 OVC030 FM290100 22010KT P6SM SCT020 BKN040 TEMPO 2901/2903 BKN020 OVC040 FM291400 23008KT P6SM SCT015 BKN030 TEMPO 2914/2918 5SM -SHRA BR BKN015 OVC030 RMK NXT FCST BY 290000Z